sensor_id;sensor_type;location;lat;lon;timestamp;temperature;humidity
64874;HTU21D;51367;45.204;38.576;2023-04-03T00:01:38;9.27;57.99
64874;HTU21D;51367;45.204;38.576;2023-04-03T00:04:05;9.31;57.98
64874;HTU21D;51367;45.204;38.576;2023-04-03T00:06:32;9.31;57.98
64874;HTU21D;51367;45.204;38.576;2023-04-03T00:08:58;9.33;57.97
64874;HTU21D;51367;45.204;38.576;2023-04-03T00:11:24;9.34;57.98
64874;HTU21D;51367;45.204;38.576;2023-04-03T00:13:51;9.34;58.00
64874;HTU21D;51367;45.204;38.576;2023-04-03T00:16:17;9.35;58.01
64874;HTU21D;51367;45.204;38.576;2023-04-03T00:18:43;9.34;58.04
64874;HTU21D;51367;45.204;38.576;2023-04-03T00:21:12;9.34;58.12
64874;HTU21D;51367;45.204;38.576;2023-04-03T00:23:38;9.34;58.17
64874;HTU21D;51367;45.204;38.576;2023-04-03T00:26:04;9.35;58.29
64874;HTU21D;51367;45.204;38.576;2023-04-03T00:28:30;9.37;58.40
64874;HTU21D;51367;45.204;38.576;2023-04-03T00:30:56;9.40;58.48
64874;HTU21D;51367;45.204;38.576;2023-04-03T00:33:22;9.44;58.61
64874;HTU21D;51367;45.204;38.576;2023-04-03T00:35:48;9.49;58.71
64874;HTU21D;51367;45.204;38.576;2023-04-03T00:38:15;9.54;58.91
64874;HTU21D;51367;45.204;38.576;2023-04-03T00:40:45;9.61;58.96
64874;HTU21D;51367;45.204;38.576;2023-04-03T00:43:17;9.67;59.08
64874;HTU21D;51367;45.204;38.576;2023-04-03T00:45:46;9.74;59.07
64874;HTU21D;51367;45.204;38.576;2023-04-03T00:48:42;9.78;59.22
64874;HTU21D;51367;45.204;38.576;2023-04-03T00:51:13;9.82;59.09
64874;HTU21D;51367;45.204;38.576;2023-04-03T00:53:44;9.86;59.14
64874;HTU21D;51367;45.204;38.576;2023-04-03T00:56:13;9.90;59.16
64874;HTU21D;51367;45.204;38.576;2023-04-03T00:58:48;9.93;59.25
64874;HTU21D;51367;45.204;38.576;2023-04-03T01:01:21;9.95;59.28
64874;HTU21D;51367;45.204;38.576;2023-04-03T01:03:48;9.98;59.32
64874;HTU21D;51367;45.204;38.576;2023-04-03T01:06:16;10.01;59.44
64874;HTU21D;51367;45.204;38.576;2023-04-03T01:08:44;10.06;59.51
64874;HTU21D;51367;45.204;38.576;2023-04-03T01:11:12;10.10;59.51
64874;HTU21D;51367;45.204;38.576;2023-04-03T01:13:38;10.14;59.48
64874;HTU21D;51367;45.204;38.576;2023-04-03T01:16:07;10.16;59.50
64874;HTU21D;51367;45.204;38.576;2023-04-03T01:18:35;10.16;59.55
64874;HTU21D;51367;45.204;38.576;2023-04-03T01:24:27;10.20;59.73
64874;HTU21D;51367;45.204;38.576;2023-04-03T01:26:56;10.20;59.67
64874;HTU21D;51367;45.204;38.576;2023-04-03T01:29:22;10.23;59.77
64874;HTU21D;51367;45.204;38.576;2023-04-03T01:32:01;10.22;59.86
64874;HTU21D;51367;45.204;38.576;2023-04-03T01:34:28;10.23;59.90
64874;HTU21D;51367;45.204;38.576;2023-04-03T01:36:54;10.24;59.97
64874;HTU21D;51367;45.204;38.576;2023-04-03T01:39:21;10.25;60.01
64874;HTU21D;51367;45.204;38.576;2023-04-03T01:41:48;10.26;60.10
64874;HTU21D;51367;45.204;38.576;2023-04-03T01:44:23;10.28;60.40
64874;HTU21D;51367;45.204;38.576;2023-04-03T01:46:49;10.29;60.76
64874;HTU21D;51367;45.204;38.576;2023-04-03T01:49:15;10.30;60.81
64874;HTU21D;51367;45.204;38.576;2023-04-03T01:51:41;10.31;60.89
64874;HTU21D;51367;45.204;38.576;2023-04-03T01:54:08;10.35;60.82
64874;HTU21D;51367;45.204;38.576;2023-04-03T01:56:33;10.36;60.80
64874;HTU21D;51367;45.204;38.576;2023-04-03T01:58:59;10.37;60.83
64874;HTU21D;51367;45.204;38.576;2023-04-03T02:01:26;10.39;60.93
64874;HTU21D;51367;45.204;38.576;2023-04-03T02:03:52;10.39;60.93
64874;HTU21D;51367;45.204;38.576;2023-04-03T02:06:18;10.40;60.93
64874;HTU21D;51367;45.204;38.576;2023-04-03T02:08:44;10.39;60.92
64874;HTU21D;51367;45.204;38.576;2023-04-03T02:11:10;10.40;60.96
64874;HTU21D;51367;45.204;38.576;2023-04-03T02:13:36;10.38;60.99
64874;HTU21D;51367;45.204;38.576;2023-04-03T02:16:10;10.37;61.06
64874;HTU21D;51367;45.204;38.576;2023-04-03T02:18:37;10.36;61.05
64874;HTU21D;51367;45.204;38.576;2023-04-03T02:21:03;10.33;61.12
64874;HTU21D;51367;45.204;38.576;2023-04-03T02:23:29;10.33;61.21
64874;HTU21D;51367;45.204;38.576;2023-04-03T02:26:09;10.33;61.49
64874;HTU21D;51367;45.204;38.576;2023-04-03T02:28:36;10.34;61.54
64874;HTU21D;51367;45.204;38.576;2023-04-03T02:31:03;10.36;61.63
64874;HTU21D;51367;45.204;38.576;2023-04-03T02:33:30;10.37;61.67
64874;HTU21D;51367;45.204;38.576;2023-04-03T02:35:58;10.38;61.70
64874;HTU21D;51367;45.204;38.576;2023-04-03T02:38:24;10.37;61.74
64874;HTU21D;51367;45.204;38.576;2023-04-03T02:40:51;10.36;61.79
64874;HTU21D;51367;45.204;38.576;2023-04-03T02:43:17;10.35;61.85
64874;HTU21D;51367;45.204;38.576;2023-04-03T02:45:43;10.34;61.92
64874;HTU21D;51367;45.204;38.576;2023-04-03T02:48:10;10.34;61.97
64874;HTU21D;51367;45.204;38.576;2023-04-03T02:50:36;10.35;62.05
64874;HTU21D;51367;45.204;38.576;2023-04-03T02:53:02;10.34;62.13
64874;HTU21D;51367;45.204;38.576;2023-04-03T02:55:28;10.36;62.24
64874;HTU21D;51367;45.204;38.576;2023-04-03T02:57:55;10.37;62.29
64874;HTU21D;51367;45.204;38.576;2023-04-03T03:00:21;10.37;62.33
64874;HTU21D;51367;45.204;38.576;2023-04-03T03:02:48;10.37;62.38
64874;HTU21D;51367;45.204;38.576;2023-04-03T03:05:15;10.37;62.41
64874;HTU21D;51367;45.204;38.576;2023-04-03T03:07:41;10.37;62.48
64874;HTU21D;51367;45.204;38.576;2023-04-03T03:10:07;10.36;62.54
64874;HTU21D;51367;45.204;38.576;2023-04-03T03:12:34;10.36;62.60
64874;HTU21D;51367;45.204;38.576;2023-04-03T03:15:00;10.36;62.64
64874;HTU21D;51367;45.204;38.576;2023-04-03T03:17:26;10.33;62.70
64874;HTU21D;51367;45.204;38.576;2023-04-03T03:19:52;10.35;62.79
64874;HTU21D;51367;45.204;38.576;2023-04-03T03:22:18;10.36;62.91
64874;HTU21D;51367;45.204;38.576;2023-04-03T03:24:44;10.39;63.04
64874;HTU21D;51367;45.204;38.576;2023-04-03T03:27:10;10.43;63.17
64874;HTU21D;51367;45.204;38.576;2023-04-03T03:29:37;10.50;63.33
64874;HTU21D;51367;45.204;38.576;2023-04-03T03:32:04;10.56;63.38
64874;HTU21D;51367;45.204;38.576;2023-04-03T03:34:31;10.63;63.47
64874;HTU21D;51367;45.204;38.576;2023-04-03T03:36:58;10.70;63.76
64874;HTU21D;51367;45.204;38.576;2023-04-03T03:39:24;10.78;63.88
64874;HTU21D;51367;45.204;38.576;2023-04-03T03:41:50;10.85;64.01
64874;HTU21D;51367;45.204;38.576;2023-04-03T03:44:19;10.94;64.25
64874;HTU21D;51367;45.204;38.576;2023-04-03T03:46:45;10.98;64.21
64874;HTU21D;51367;45.204;38.576;2023-04-03T03:49:11;11.04;64.31
64874;HTU21D;51367;45.204;38.576;2023-04-03T03:51:38;11.10;64.47
64874;HTU21D;51367;45.204;38.576;2023-04-03T03:54:05;11.17;64.71
64874;HTU21D;51367;45.204;38.576;2023-04-03T03:56:32;11.24;64.79
64874;HTU21D;51367;45.204;38.576;2023-04-03T03:58:58;11.28;64.87
64874;HTU21D;51367;45.204;38.576;2023-04-03T04:01:24;11.31;65.08
64874;HTU21D;51367;45.204;38.576;2023-04-03T04:03:51;11.37;65.22
64874;HTU21D;51367;45.204;38.576;2023-04-03T04:06:23;11.41;65.38
64874;HTU21D;51367;45.204;38.576;2023-04-03T04:08:50;11.46;65.42
64874;HTU21D;51367;45.204;38.576;2023-04-03T04:11:16;11.49;65.62
64874;HTU21D;51367;45.204;38.576;2023-04-03T04:13:44;11.54;65.78
64874;HTU21D;51367;45.204;38.576;2023-04-03T04:16:12;11.57;65.87
64874;HTU21D;51367;45.204;38.576;2023-04-03T04:18:38;11.60;65.92
64874;HTU21D;51367;45.204;38.576;2023-04-03T04:21:04;11.62;66.21
64874;HTU21D;51367;45.204;38.576;2023-04-03T04:23:30;11.62;66.30
64874;HTU21D;51367;45.204;38.576;2023-04-03T04:25:58;11.63;66.38
64874;HTU21D;51367;45.204;38.576;2023-04-03T04:28:25;11.64;66.48
64874;HTU21D;51367;45.204;38.576;2023-04-03T04:30:54;11.66;66.59
64874;HTU21D;51367;45.204;38.576;2023-04-03T04:33:22;11.67;66.69
64874;HTU21D;51367;45.204;38.576;2023-04-03T04:35:48;11.68;66.77
64874;HTU21D;51367;45.204;38.576;2023-04-03T04:38:15;11.69;66.87
64874;HTU21D;51367;45.204;38.576;2023-04-03T04:40:41;11.69;67.04
64874;HTU21D;51367;45.204;38.576;2023-04-03T04:43:07;11.70;67.18
64874;HTU21D;51367;45.204;38.576;2023-04-03T04:45:34;11.70;67.52
64874;HTU21D;51367;45.204;38.576;2023-04-03T04:48:01;11.72;67.54
64874;HTU21D;51367;45.204;38.576;2023-04-03T04:50:26;11.73;67.80
64874;HTU21D;51367;45.204;38.576;2023-04-03T04:52:54;11.77;67.87
64874;HTU21D;51367;45.204;38.576;2023-04-03T04:55:20;11.81;67.97
64874;HTU21D;51367;45.204;38.576;2023-04-03T04:57:46;11.84;68.04
64874;HTU21D;51367;45.204;38.576;2023-04-03T05:00:13;11.88;68.14
64874;HTU21D;51367;45.204;38.576;2023-04-03T05:02:39;11.90;68.40
64874;HTU21D;51367;45.204;38.576;2023-04-03T05:05:05;11.92;68.66
64874;HTU21D;51367;45.204;38.576;2023-04-03T05:07:33;11.97;68.83
64874;HTU21D;51367;45.204;38.576;2023-04-03T05:10:00;11.99;68.97
64874;HTU21D;51367;45.204;38.576;2023-04-03T05:12:27;12.01;69.19
64874;HTU21D;51367;45.204;38.576;2023-04-03T05:14:57;12.03;69.46
64874;HTU21D;51367;45.204;38.576;2023-04-03T05:17:25;12.06;69.46
64874;HTU21D;51367;45.204;38.576;2023-04-03T05:19:54;12.07;69.48
64874;HTU21D;51367;45.204;38.576;2023-04-03T05:22:21;12.10;69.76
64874;HTU21D;51367;45.204;38.576;2023-04-03T05:24:48;12.10;69.97
64874;HTU21D;51367;45.204;38.576;2023-04-03T05:27:15;12.10;70.05
64874;HTU21D;51367;45.204;38.576;2023-04-03T05:29:46;12.10;70.28
64874;HTU21D;51367;45.204;38.576;2023-04-03T05:32:17;12.10;70.33
64874;HTU21D;51367;45.204;38.576;2023-04-03T05:34:46;12.08;70.44
64874;HTU21D;51367;45.204;38.576;2023-04-03T05:37:12;12.10;70.75
64874;HTU21D;51367;45.204;38.576;2023-04-03T05:39:39;12.06;70.77
64874;HTU21D;51367;45.204;38.576;2023-04-03T05:42:07;12.05;70.98
64874;HTU21D;51367;45.204;38.576;2023-04-03T05:44:34;12.05;71.07
64874;HTU21D;51367;45.204;38.576;2023-04-03T05:47:01;12.02;71.35
64874;HTU21D;51367;45.204;38.576;2023-04-03T05:49:28;12.00;71.36
64874;HTU21D;51367;45.204;38.576;2023-04-03T05:51:54;11.98;71.56
64874;HTU21D;51367;45.204;38.576;2023-04-03T05:54:27;11.97;71.56
64874;HTU21D;51367;45.204;38.576;2023-04-03T05:57:05;11.96;71.62
64874;HTU21D;51367;45.204;38.576;2023-04-03T05:59:31;11.97;71.73
64874;HTU21D;51367;45.204;38.576;2023-04-03T06:01:59;11.94;71.75
64874;HTU21D;51367;45.204;38.576;2023-04-03T06:04:27;11.96;71.80
64874;HTU21D;51367;45.204;38.576;2023-04-03T06:06:55;11.93;71.80
64874;HTU21D;51367;45.204;38.576;2023-04-03T06:09:24;11.92;71.94
64874;HTU21D;51367;45.204;38.576;2023-04-03T06:11:50;11.91;72.00
64874;HTU21D;51367;45.204;38.576;2023-04-03T06:14:18;11.88;72.09
64874;HTU21D;51367;45.204;38.576;2023-04-03T06:16:44;11.88;72.26
64874;HTU21D;51367;45.204;38.576;2023-04-03T06:19:11;11.87;72.47
64874;HTU21D;51367;45.204;38.576;2023-04-03T06:21:41;11.86;72.63
64874;HTU21D;51367;45.204;38.576;2023-04-03T06:24:09;11.87;72.68
64874;HTU21D;51367;45.204;38.576;2023-04-03T06:26:35;11.89;72.77
64874;HTU21D;51367;45.204;38.576;2023-04-03T06:29:01;11.89;72.94
64874;HTU21D;51367;45.204;38.576;2023-04-03T06:31:27;11.91;73.09
64874;HTU21D;51367;45.204;38.576;2023-04-03T06:33:53;11.91;73.19
64874;HTU21D;51367;45.204;38.576;2023-04-03T06:36:19;11.93;73.28
64874;HTU21D;51367;45.204;38.576;2023-04-03T06:38:47;11.96;73.44
64874;HTU21D;51367;45.204;38.576;2023-04-03T06:41:13;11.94;73.57
64874;HTU21D;51367;45.204;38.576;2023-04-03T06:43:39;11.94;73.74
64874;HTU21D;51367;45.204;38.576;2023-04-03T06:46:04;11.93;73.88
64874;HTU21D;51367;45.204;38.576;2023-04-03T06:48:31;11.94;74.06
64874;HTU21D;51367;45.204;38.576;2023-04-03T06:50:57;11.94;74.19
64874;HTU21D;51367;45.204;38.576;2023-04-03T06:53:23;11.96;74.49
64874;HTU21D;51367;45.204;38.576;2023-04-03T06:55:49;11.94;74.67
64874;HTU21D;51367;45.204;38.576;2023-04-03T06:58:15;11.92;74.77
64874;HTU21D;51367;45.204;38.576;2023-04-03T07:00:42;11.94;74.95
64874;HTU21D;51367;45.204;38.576;2023-04-03T07:03:08;11.96;75.08
64874;HTU21D;51367;45.204;38.576;2023-04-03T07:05:34;11.98;75.12
64874;HTU21D;51367;45.204;38.576;2023-04-03T07:08:01;12.01;75.05
64874;HTU21D;51367;45.204;38.576;2023-04-03T07:10:27;12.05;75.01
64874;HTU21D;51367;45.204;38.576;2023-04-03T07:12:53;12.06;75.05
64874;HTU21D;51367;45.204;38.576;2023-04-03T07:15:19;12.12;75.21
64874;HTU21D;51367;45.204;38.576;2023-04-03T07:17:44;12.15;75.17
64874;HTU21D;51367;45.204;38.576;2023-04-03T07:20:11;12.19;75.12
64874;HTU21D;51367;45.204;38.576;2023-04-03T07:22:37;12.22;75.29
64874;HTU21D;51367;45.204;38.576;2023-04-03T07:25:03;12.27;75.31
64874;HTU21D;51367;45.204;38.576;2023-04-03T07:27:31;12.29;75.25
64874;HTU21D;51367;45.204;38.576;2023-04-03T07:29:57;12.33;75.12
64874;HTU21D;51367;45.204;38.576;2023-04-03T07:32:23;12.36;75.15
64874;HTU21D;51367;45.204;38.576;2023-04-03T07:34:49;12.41;75.04
64874;HTU21D;51367;45.204;38.576;2023-04-03T07:37:15;12.43;75.13
64874;HTU21D;51367;45.204;38.576;2023-04-03T07:39:43;12.45;75.21
64874;HTU21D;51367;45.204;38.576;2023-04-03T07:42:10;12.46;75.27
64874;HTU21D;51367;45.204;38.576;2023-04-03T07:44:37;12.48;75.41
64874;HTU21D;51367;45.204;38.576;2023-04-03T07:47:03;12.51;75.37
64874;HTU21D;51367;45.204;38.576;2023-04-03T07:49:29;12.53;75.36
64874;HTU21D;51367;45.204;38.576;2023-04-03T07:51:55;12.57;75.34
64874;HTU21D;51367;45.204;38.576;2023-04-03T07:54:21;12.60;75.28
64874;HTU21D;51367;45.204;38.576;2023-04-03T07:56:47;12.66;75.21
64874;HTU21D;51367;45.204;38.576;2023-04-03T07:59:13;12.73;75.37
64874;HTU21D;51367;45.204;38.576;2023-04-03T08:01:39;12.79;75.30
64874;HTU21D;51367;45.204;38.576;2023-04-03T08:04:05;12.90;75.25
64874;HTU21D;51367;45.204;38.576;2023-04-03T08:06:32;13.00;75.20
64874;HTU21D;51367;45.204;38.576;2023-04-03T08:09:01;13.10;75.06
64874;HTU21D;51367;45.204;38.576;2023-04-03T08:11:27;13.21;74.95
64874;HTU21D;51367;45.204;38.576;2023-04-03T08:13:53;13.33;74.92
64874;HTU21D;51367;45.204;38.576;2023-04-03T08:16:21;13.44;74.89
64874;HTU21D;51367;45.204;38.576;2023-04-03T08:18:48;13.54;74.99
64874;HTU21D;51367;45.204;38.576;2023-04-03T08:21:14;13.63;75.10
64874;HTU21D;51367;45.204;38.576;2023-04-03T08:23:40;13.74;75.15
64874;HTU21D;51367;45.204;38.576;2023-04-03T08:26:12;13.88;75.16
64874;HTU21D;51367;45.204;38.576;2023-04-03T08:28:39;14.04;75.56
64874;HTU21D;51367;45.204;38.576;2023-04-03T08:31:07;14.17;75.39
64874;HTU21D;51367;45.204;38.576;2023-04-03T08:33:34;14.32;75.42
64874;HTU21D;51367;45.204;38.576;2023-04-03T08:36:03;14.45;75.34
64874;HTU21D;51367;45.204;38.576;2023-04-03T08:38:29;14.62;75.08
64874;HTU21D;51367;45.204;38.576;2023-04-03T08:41:35;14.95;75.17
64874;HTU21D;51367;45.204;38.576;2023-04-03T08:44:25;15.38;74.80
64874;HTU21D;51367;45.204;38.576;2023-04-03T08:49:37;16.10;73.61
64874;HTU21D;51367;45.204;38.576;2023-04-03T08:52:16;16.34;72.84
64874;HTU21D;51367;45.204;38.576;2023-04-03T08:55:07;16.45;72.39
64874;HTU21D;51367;45.204;38.576;2023-04-03T08:57:35;16.54;72.17
64874;HTU21D;51367;45.204;38.576;2023-04-03T09:00:07;16.64;72.19
64874;HTU21D;51367;45.204;38.576;2023-04-03T09:02:47;16.78;72.01
64874;HTU21D;51367;45.204;38.576;2023-04-03T09:05:19;16.91;71.72
64874;HTU21D;51367;45.204;38.576;2023-04-03T09:07:53;17.04;71.33
64874;HTU21D;51367;45.204;38.576;2023-04-03T09:10:28;17.17;71.10
64874;HTU21D;51367;45.204;38.576;2023-04-03T09:13:04;17.33;71.00
64874;HTU21D;51367;45.204;38.576;2023-04-03T09:15:31;17.49;70.69
64874;HTU21D;51367;45.204;38.576;2023-04-03T09:18:04;17.67;70.48
64874;HTU21D;51367;45.204;38.576;2023-04-03T09:20:45;17.87;70.15
64874;HTU21D;51367;45.204;38.576;2023-04-03T09:25:44;18.26;69.47
64874;HTU21D;51367;45.204;38.576;2023-04-03T09:28:10;18.41;69.06
64874;HTU21D;51367;45.204;38.576;2023-04-03T09:30:37;18.58;68.73
64874;HTU21D;51367;45.204;38.576;2023-04-03T09:33:04;18.73;68.35
64874;HTU21D;51367;45.204;38.576;2023-04-03T09:35:35;18.89;68.10
64874;HTU21D;51367;45.204;38.576;2023-04-03T09:40:42;19.18;67.20
64874;HTU21D;51367;45.204;38.576;2023-04-03T09:43:29;19.28;66.34
64874;HTU21D;51367;45.204;38.576;2023-04-03T09:46:17;19.40;66.14
64874;HTU21D;51367;45.204;38.576;2023-04-03T09:49:12;19.53;65.78
64874;HTU21D;51367;45.204;38.576;2023-04-03T09:51:38;19.67;65.39
64874;HTU21D;51367;45.204;38.576;2023-04-03T09:54:30;19.79;63.73
64874;HTU21D;51367;45.204;38.576;2023-04-03T09:57:01;19.85;63.18
64874;HTU21D;51367;45.204;38.576;2023-04-03T09:59:27;19.91;63.18
64874;HTU21D;51367;45.204;38.576;2023-04-03T10:01:59;19.98;62.55
64874;HTU21D;51367;45.204;38.576;2023-04-03T10:04:37;20.05;62.12
64874;HTU21D;51367;45.204;38.576;2023-04-03T10:07:03;20.12;61.95
64874;HTU21D;51367;45.204;38.576;2023-04-03T10:09:55;20.26;61.53
64874;HTU21D;51367;45.204;38.576;2023-04-03T10:12:22;20.37;61.45
64874;HTU21D;51367;45.204;38.576;2023-04-03T10:14:56;20.41;60.79
64874;HTU21D;51367;45.204;38.576;2023-04-03T10:17:47;20.53;60.88
64874;HTU21D;51367;45.204;38.576;2023-04-03T10:25:46;20.98;59.74
64874;HTU21D;51367;45.204;38.576;2023-04-03T10:28:46;21.03;59.27
64874;HTU21D;51367;45.204;38.576;2023-04-03T10:53:34;21.44;57.38
64874;HTU21D;51367;45.204;38.576;2023-04-03T10:56:21;21.45;56.78
64874;HTU21D;51367;45.204;38.576;2023-04-03T10:59:28;21.42;56.81
64874;HTU21D;51367;45.204;38.576;2023-04-03T11:02:07;21.32;56.51
64874;HTU21D;51367;45.204;38.576;2023-04-03T11:04:39;21.27;56.67
64874;HTU21D;51367;45.204;38.576;2023-04-03T11:07:17;21.28;56.68
64874;HTU21D;51367;45.204;38.576;2023-04-03T11:09:47;21.30;56.68
64874;HTU21D;51367;45.204;38.576;2023-04-03T11:12:28;21.31;56.46
64874;HTU21D;51367;45.204;38.576;2023-04-03T11:14:59;21.32;56.13
64874;HTU21D;51367;45.204;38.576;2023-04-03T11:17:39;21.25;55.89
64874;HTU21D;51367;45.204;38.576;2023-04-03T11:20:22;21.19;55.47
64874;HTU21D;51367;45.204;38.576;2023-04-03T11:23:28;21.13;55.79
64874;HTU21D;51367;45.204;38.576;2023-04-03T11:26:21;21.07;55.57
64874;HTU21D;51367;45.204;38.576;2023-04-03T11:28:46;21.01;55.71
64874;HTU21D;51367;45.204;38.576;2023-04-03T11:34:34;21.01;55.68
64874;HTU21D;51367;45.204;38.576;2023-04-03T11:37:06;20.99;55.63
64874;HTU21D;51367;45.204;38.576;2023-04-03T11:39:38;20.93;55.20
64874;HTU21D;51367;45.204;38.576;2023-04-03T11:42:24;20.84;55.35
64874;HTU21D;51367;45.204;38.576;2023-04-03T11:48:41;20.79;55.39
64874;HTU21D;51367;45.204;38.576;2023-04-03T11:50:53;20.80;55.19
64874;HTU21D;51367;45.204;38.576;2023-04-03T11:53:45;20.79;55.29
64874;HTU21D;51367;45.204;38.576;2023-04-03T12:02:23;20.96;55.04
64874;HTU21D;51367;45.204;38.576;2023-04-03T12:05:25;20.95;54.33
64874;HTU21D;51367;45.204;38.576;2023-04-03T12:08:28;20.93;54.98
64874;HTU21D;51367;45.204;38.576;2023-04-03T12:17:12;21.11;54.87
64874;HTU21D;51367;45.204;38.576;2023-04-03T12:35:01;21.00;54.38
64874;HTU21D;51367;45.204;38.576;2023-04-03T12:46:08;21.01;54.43
64874;HTU21D;51367;45.204;38.576;2023-04-03T12:48:58;21.06;54.39
64874;HTU21D;51367;45.204;38.576;2023-04-03T12:51:40;21.09;54.20
64874;HTU21D;51367;45.204;38.576;2023-04-03T12:54:16;20.95;54.18
64874;HTU21D;51367;45.204;38.576;2023-04-03T12:56:44;20.77;54.39
64874;HTU21D;51367;45.204;38.576;2023-04-03T12:59:36;20.61;54.39
64874;HTU21D;51367;45.204;38.576;2023-04-03T13:02:15;20.55;54.63
64874;HTU21D;51367;45.204;38.576;2023-04-03T13:04:44;20.47;54.74
64874;HTU21D;51367;45.204;38.576;2023-04-03T13:07:37;20.31;54.67
64874;HTU21D;51367;45.204;38.576;2023-04-03T13:12:56;20.09;55.36
64874;HTU21D;51367;45.204;38.576;2023-04-03T13:15:24;20.10;55.40
64874;HTU21D;51367;45.204;38.576;2023-04-03T13:17:52;20.06;55.29
64874;HTU21D;51367;45.204;38.576;2023-04-03T13:23:00;20.11;55.14
64874;HTU21D;51367;45.204;38.576;2023-04-03T13:25:29;20.07;55.20
64874;HTU21D;51367;45.204;38.576;2023-04-03T13:27:57;20.05;55.20
64874;HTU21D;51367;45.204;38.576;2023-04-03T13:30:31;20.02;55.19
64874;HTU21D;51367;45.204;38.576;2023-04-03T13:33:01;19.89;55.21
64874;HTU21D;51367;45.204;38.576;2023-04-03T13:35:32;19.71;55.35
64874;HTU21D;51367;45.204;38.576;2023-04-03T13:38:27;19.53;55.38
64874;HTU21D;51367;45.204;38.576;2023-04-03T13:40:59;19.38;55.62
64874;HTU21D;51367;45.204;38.576;2023-04-03T13:43:35;19.25;55.71
64874;HTU21D;51367;45.204;38.576;2023-04-03T13:46:22;0.00;55.90
64874;HTU21D;51367;45.204;38.576;2023-04-03T13:48:51;19.09;56.10
64874;HTU21D;51367;45.204;38.576;2023-04-03T13:51:24;19.11;56.16
64874;HTU21D;51367;45.204;38.576;2023-04-03T13:54:10;19.18;56.16
64874;HTU21D;51367;45.204;38.576;2023-04-03T13:56:39;19.25;56.07
64874;HTU21D;51367;45.204;38.576;2023-04-03T14:04:44;19.30;56.05
64874;HTU21D;51367;45.204;38.576;2023-04-03T14:07:15;19.35;56.03
64874;HTU21D;51367;45.204;38.576;2023-04-03T14:09:42;19.39;55.98
64874;HTU21D;51367;45.204;38.576;2023-04-03T14:12:17;19.39;55.91
64874;HTU21D;51367;45.204;38.576;2023-04-03T14:14:44;19.36;56.01
64874;HTU21D;51367;45.204;38.576;2023-04-03T14:17:17;19.32;56.03
64874;HTU21D;51367;45.204;38.576;2023-04-03T14:19:44;19.28;56.12
64874;HTU21D;51367;45.204;38.576;2023-04-03T14:24:48;19.05;56.32
64874;HTU21D;51367;45.204;38.576;2023-04-03T14:27:25;18.96;56.36
64874;HTU21D;51367;45.204;38.576;2023-04-03T14:29:52;18.84;56.52
64874;HTU21D;51367;45.204;38.576;2023-04-03T14:32:20;18.74;56.64
64874;HTU21D;51367;45.204;38.576;2023-04-03T14:34:47;18.65;56.84
64874;HTU21D;51367;45.204;38.576;2023-04-03T14:37:17;18.53;57.00
64874;HTU21D;51367;45.204;38.576;2023-04-03T14:39:44;18.44;57.08
64874;HTU21D;51367;45.204;38.576;2023-04-03T14:42:16;18.32;57.22
64874;HTU21D;51367;45.204;38.576;2023-04-03T14:44:42;18.15;57.36
64874;HTU21D;51367;45.204;38.576;2023-04-03T14:47:12;17.99;57.63
64874;HTU21D;51367;45.204;38.576;2023-04-03T14:49:39;17.87;57.86
64874;HTU21D;51367;45.204;38.576;2023-04-03T14:52:05;17.73;58.06
64874;HTU21D;51367;45.204;38.576;2023-04-03T14:54:31;17.56;58.30
64874;HTU21D;51367;45.204;38.576;2023-04-03T14:56:59;17.41;58.54
64874;HTU21D;51367;45.204;38.576;2023-04-03T14:59:26;17.28;58.76
64874;HTU21D;51367;45.204;38.576;2023-04-03T15:01:52;17.13;58.95
64874;HTU21D;51367;45.204;38.576;2023-04-03T15:04:20;17.00;59.15
64874;HTU21D;51367;45.204;38.576;2023-04-03T15:06:48;16.85;59.38
64874;HTU21D;51367;45.204;38.576;2023-04-03T15:09:25;16.69;59.57
64874;HTU21D;51367;45.204;38.576;2023-04-03T15:11:54;16.56;59.67
64874;HTU21D;51367;45.204;38.576;2023-04-03T15:14:20;16.45;59.83
64874;HTU21D;51367;45.204;38.576;2023-04-03T15:16:46;16.35;60.00
64874;HTU21D;51367;45.204;38.576;2023-04-03T15:19:13;16.25;60.15
64874;HTU21D;51367;45.204;38.576;2023-04-03T15:21:40;16.16;60.28
64874;HTU21D;51367;45.204;38.576;2023-04-03T15:24:06;16.05;60.44
64874;HTU21D;51367;45.204;38.576;2023-04-03T15:26:32;15.98;60.60
64874;HTU21D;51367;45.204;38.576;2023-04-03T15:28:58;15.87;60.75
64874;HTU21D;51367;45.204;38.576;2023-04-03T15:31:25;15.78;60.89
64874;HTU21D;51367;45.204;38.576;2023-04-03T15:33:51;15.68;61.00
64874;HTU21D;51367;45.204;38.576;2023-04-03T15:36:16;15.58;61.18
64874;HTU21D;51367;45.204;38.576;2023-04-03T15:38:42;15.47;61.31
64874;HTU21D;51367;45.204;38.576;2023-04-03T15:41:08;15.40;61.44
64874;HTU21D;51367;45.204;38.576;2023-04-03T15:43:34;15.31;61.53
64874;HTU21D;51367;45.204;38.576;2023-04-03T15:46:01;15.23;61.65
64874;HTU21D;51367;45.204;38.576;2023-04-03T15:48:28;15.16;61.73
64874;HTU21D;51367;45.204;38.576;2023-04-03T15:50:54;15.08;61.82
64874;HTU21D;51367;45.204;38.576;2023-04-03T15:53:20;15.00;61.90
64874;HTU21D;51367;45.204;38.576;2023-04-03T15:55:46;14.93;62.01
64874;HTU21D;51367;45.204;38.576;2023-04-03T15:58:12;14.83;62.09
64874;HTU21D;51367;45.204;38.576;2023-04-03T16:00:38;14.75;62.21
64874;HTU21D;51367;45.204;38.576;2023-04-03T16:03:11;14.69;62.39
64874;HTU21D;51367;45.204;38.576;2023-04-03T16:05:37;14.59;62.41
64874;HTU21D;51367;45.204;38.576;2023-04-03T16:08:04;14.52;62.39
64874;HTU21D;51367;45.204;38.576;2023-04-03T16:10:31;14.45;62.63
64874;HTU21D;51367;45.204;38.576;2023-04-03T16:12:57;14.38;62.76
64874;HTU21D;51367;45.204;38.576;2023-04-03T16:15:23;14.29;62.96
64874;HTU21D;51367;45.204;38.576;2023-04-03T16:17:50;14.24;63.09
64874;HTU21D;51367;45.204;38.576;2023-04-03T16:20:16;14.17;63.27
64874;HTU21D;51367;45.204;38.576;2023-04-03T16:22:44;14.12;63.46
64874;HTU21D;51367;45.204;38.576;2023-04-03T16:25:11;14.06;63.57
64874;HTU21D;51367;45.204;38.576;2023-04-03T16:27:37;14.00;63.66
64874;HTU21D;51367;45.204;38.576;2023-04-03T16:30:04;13.93;63.78
64874;HTU21D;51367;45.204;38.576;2023-04-03T16:32:31;13.85;63.89
64874;HTU21D;51367;45.204;38.576;2023-04-03T16:34:57;13.82;64.00
64874;HTU21D;51367;45.204;38.576;2023-04-03T16:37:24;13.74;64.10
64874;HTU21D;51367;45.204;38.576;2023-04-03T16:39:51;13.70;64.20
64874;HTU21D;51367;45.204;38.576;2023-04-03T16:42:17;13.65;64.34
64874;HTU21D;51367;45.204;38.576;2023-04-03T16:44:42;13.59;64.43
64874;HTU21D;51367;45.204;38.576;2023-04-03T16:47:09;13.53;64.53
64874;HTU21D;51367;45.204;38.576;2023-04-03T16:49:36;13.46;64.63
64874;HTU21D;51367;45.204;38.576;2023-04-03T16:52:03;13.40;64.80
64874;HTU21D;51367;45.204;38.576;2023-04-03T16:54:30;13.32;64.97